sensor_id;sensor_type;location;lat;lon;timestamp;temperature;humidity
65864;SHT30;52639;51.180;20.460;2022-11-20T00:01:21;-9.89;91.42
65864;SHT30;52639;51.180;20.460;2022-11-20T00:05:24;-10.02;91.54
65864;SHT30;52639;51.180;20.460;2022-11-20T00:09:27;-9.96;92.21
65864;SHT30;52639;51.180;20.460;2022-11-20T00:13:31;-9.99;91.33
65864;SHT30;52639;51.180;20.460;2022-11-20T00:17:33;-10.05;91.73
65864;SHT30;52639;51.180;20.460;2022-11-20T00:21:36;-10.03;91.50
65864;SHT30;52639;51.180;20.460;2022-11-20T00:25:38;-10.07;91.50
65864;SHT30;52639;51.180;20.460;2022-11-20T00:29:43;-10.03;91.59
65864;SHT30;52639;51.180;20.460;2022-11-20T00:33:46;-10.09;91.52
65864;SHT30;52639;51.180;20.460;2022-11-20T00:37:48;-10.02;91.79
65864;SHT30;52639;51.180;20.460;2022-11-20T00:41:51;-10.03;91.34
65864;SHT30;52639;51.180;20.460;2022-11-20T00:45:58;-10.26;90.37
65864;SHT30;52639;51.180;20.460;2022-11-20T00:50:01;-10.30;91.16
65864;SHT30;52639;51.180;20.460;2022-11-20T00:54:03;-10.33;90.95
65864;SHT30;52639;51.180;20.460;2022-11-20T00:58:06;-10.37;91.03
65864;SHT30;52639;51.180;20.460;2022-11-20T01:02:09;-10.26;91.48
65864;SHT30;52639;51.180;20.460;2022-11-20T01:06:15;-10.25;91.12
65864;SHT30;52639;51.180;20.460;2022-11-20T01:10:17;-10.17;91.74
65864;SHT30;52639;51.180;20.460;2022-11-20T01:14:20;-10.05;91.13
65864;SHT30;52639;51.180;20.460;2022-11-20T01:18:24;-9.95;91.99
65864;SHT30;52639;51.180;20.460;2022-11-20T01:22:27;-10.09;91.14
65864;SHT30;52639;51.180;20.460;2022-11-20T01:26:30;-10.13;91.03
65864;SHT30;52639;51.180;20.460;2022-11-20T01:30:33;-10.17;91.28
65864;SHT30;52639;51.180;20.460;2022-11-20T01:34:37;-10.20;91.33
65864;SHT30;52639;51.180;20.460;2022-11-20T01:38:40;-10.25;90.85
65864;SHT30;52639;51.180;20.460;2022-11-20T01:42:46;-10.23;91.49
65864;SHT30;52639;51.180;20.460;2022-11-20T01:47:08;-10.19;91.37
65864;SHT30;52639;51.180;20.460;2022-11-20T01:51:19;-10.12;91.89
65864;SHT30;52639;51.180;20.460;2022-11-20T01:55:24;-10.09;92.05
65864;SHT30;52639;51.180;20.460;2022-11-20T01:59:28;-10.05;91.85
65864;SHT30;52639;51.180;20.460;2022-11-20T02:03:32;-10.17;91.03
65864;SHT30;52639;51.180;20.460;2022-11-20T02:07:36;-10.32;91.22
65864;SHT30;52639;51.180;20.460;2022-11-20T02:11:39;-10.37;91.28
65864;SHT30;52639;51.180;20.460;2022-11-20T02:15:42;-10.32;91.52
65864;SHT30;52639;51.180;20.460;2022-11-20T02:19:45;-10.29;91.18
65864;SHT30;52639;51.180;20.460;2022-11-20T02:24:06;-10.39;91.02
65864;SHT30;52639;51.180;20.460;2022-11-20T02:28:10;-10.41;91.14
65864;SHT30;52639;51.180;20.460;2022-11-20T02:32:18;-10.37;91.55
65864;SHT30;52639;51.180;20.460;2022-11-20T02:36:21;-10.26;91.61
65864;SHT30;52639;51.180;20.460;2022-11-20T02:40:25;-10.26;91.22
65864;SHT30;52639;51.180;20.460;2022-11-20T02:44:28;-10.23;90.91
65864;SHT30;52639;51.180;20.460;2022-11-20T02:48:30;-10.30;90.88
65864;SHT30;52639;51.180;20.460;2022-11-20T02:52:34;-10.47;90.33
65864;SHT30;52639;51.180;20.460;2022-11-20T02:56:39;-10.50;90.86
65864;SHT30;52639;51.180;20.460;2022-11-20T03:00:42;-10.44;91.08
65864;SHT30;52639;51.180;20.460;2022-11-20T03:04:44;-10.46;90.91
65864;SHT30;52639;51.180;20.460;2022-11-20T03:08:47;-10.47;90.89
65864;SHT30;52639;51.180;20.460;2022-11-20T03:12:54;-10.53;90.99
65864;SHT30;52639;51.180;20.460;2022-11-20T03:16:57;-10.46;91.41
65864;SHT30;52639;51.180;20.460;2022-11-20T03:20:59;-10.26;92.19
65864;SHT30;52639;51.180;20.460;2022-11-20T03:25:03;-10.19;90.96
65864;SHT30;52639;51.180;20.460;2022-11-20T03:29:07;-10.19;91.09
65864;SHT30;52639;51.180;20.460;2022-11-20T03:33:10;-10.01;91.36
65864;SHT30;52639;51.180;20.460;2022-11-20T03:37:12;-10.13;90.84
65864;SHT30;52639;51.180;20.460;2022-11-20T03:41:17;-10.37;90.43
65864;SHT30;52639;51.180;20.460;2022-11-20T03:45:21;-10.50;91.05
65864;SHT30;52639;51.180;20.460;2022-11-20T03:49:23;-10.40;90.77
65864;SHT30;52639;51.180;20.460;2022-11-20T03:53:26;-10.17;92.34
65864;SHT30;52639;51.180;20.460;2022-11-20T03:57:28;-10.15;91.10
65864;SHT30;52639;51.180;20.460;2022-11-20T04:01:33;-10.30;90.36
65864;SHT30;52639;51.180;20.460;2022-11-20T04:05:36;-10.23;91.35
65864;SHT30;52639;51.180;20.460;2022-11-20T04:09:38;-10.22;91.31
65864;SHT30;52639;51.180;20.460;2022-11-20T04:13:45;-10.33;90.82
65864;SHT30;52639;51.180;20.460;2022-11-20T04:17:49;-10.54;90.90
65864;SHT30;52639;51.180;20.460;2022-11-20T04:21:52;-10.65;91.09
65864;SHT30;52639;51.180;20.460;2022-11-20T04:25:54;-10.61;91.77
65864;SHT30;52639;51.180;20.460;2022-11-20T04:29:57;-10.41;91.76
65864;SHT30;52639;51.180;20.460;2022-11-20T04:34:02;-10.53;90.73
65864;SHT30;52639;51.180;20.460;2022-11-20T04:38:05;-10.60;91.05
65864;SHT30;52639;51.180;20.460;2022-11-20T04:42:08;-10.63;91.40
65864;SHT30;52639;51.180;20.460;2022-11-20T04:46:29;-10.56;91.85
65864;SHT30;52639;51.180;20.460;2022-11-20T04:50:33;-10.53;91.41
65864;SHT30;52639;51.180;20.460;2022-11-20T04:54:35;-10.53;91.59
65864;SHT30;52639;51.180;20.460;2022-11-20T04:58:38;-10.54;91.13
65864;SHT30;52639;51.180;20.460;2022-11-20T05:02:41;-10.50;91.99
65864;SHT30;52639;51.180;20.460;2022-11-20T05:06:45;-10.50;91.23
65864;SHT30;52639;51.180;20.460;2022-11-20T05:10:48;-10.63;91.20
65864;SHT30;52639;51.180;20.460;2022-11-20T05:14:50;-10.70;91.05
65864;SHT30;52639;51.180;20.460;2022-11-20T05:18:53;-10.80;91.11
65864;SHT30;52639;51.180;20.460;2022-11-20T05:22:58;-10.80;91.33
65864;SHT30;52639;51.180;20.460;2022-11-20T05:27:00;-10.85;91.12
65864;SHT30;52639;51.180;20.460;2022-11-20T05:31:06;-10.98;90.66
65864;SHT30;52639;51.180;20.460;2022-11-20T05:35:09;-11.04;91.30
65864;SHT30;52639;51.180;20.460;2022-11-20T05:39:13;-11.03;91.14
65864;SHT30;52639;51.180;20.460;2022-11-20T05:43:16;-10.98;91.64
65864;SHT30;52639;51.180;20.460;2022-11-20T05:47:18;-10.85;91.17
65864;SHT30;52639;51.180;20.460;2022-11-20T05:51:22;-10.91;90.53
65864;SHT30;52639;51.180;20.460;2022-11-20T05:55:26;-10.92;91.78
65864;SHT30;52639;51.180;20.460;2022-11-20T05:59:29;-10.80;91.82
65864;SHT30;52639;51.180;20.460;2022-11-20T06:03:31;-10.81;91.27
65864;SHT30;52639;51.180;20.460;2022-11-20T06:07:34;-10.77;90.83
65864;SHT30;52639;51.180;20.460;2022-11-20T06:11:38;-10.94;90.58
65864;SHT30;52639;51.180;20.460;2022-11-20T06:15:40;-10.95;90.86
65864;SHT30;52639;51.180;20.460;2022-11-20T06:19:43;-10.98;90.71
65864;SHT30;52639;51.180;20.460;2022-11-20T06:23:46;-10.91;91.01
65864;SHT30;52639;51.180;20.460;2022-11-20T06:27:50;-10.83;90.69
65864;SHT30;52639;51.180;20.460;2022-11-20T06:31:52;-10.64;91.41
65864;SHT30;52639;51.180;20.460;2022-11-20T06:36:00;-10.43;90.78
65864;SHT30;52639;51.180;20.460;2022-11-20T06:40:12;-10.26;90.57
65864;SHT30;52639;51.180;20.460;2022-11-20T06:44:16;-10.10;90.57
65864;SHT30;52639;51.180;20.460;2022-11-20T06:48:19;-9.86;90.58
65864;SHT30;52639;51.180;20.460;2022-11-20T06:52:21;-9.74;90.22
65864;SHT30;52639;51.180;20.460;2022-11-20T06:56:24;-9.52;90.44
65864;SHT30;52639;51.180;20.460;2022-11-20T07:00:28;-9.28;90.20
65864;SHT30;52639;51.180;20.460;2022-11-20T07:04:31;-9.11;90.26
65864;SHT30;52639;51.180;20.460;2022-11-20T07:08:40;-8.96;90.24
65864;SHT30;52639;51.180;20.460;2022-11-20T07:12:49;-8.69;90.03
65864;SHT30;52639;51.180;20.460;2022-11-20T07:17:12;-8.35;89.88
65864;SHT30;52639;51.180;20.460;2022-11-20T07:21:21;-8.18;89.92
65864;SHT30;52639;51.180;20.460;2022-11-20T07:25:49;-6.96;89.33
65864;SHT30;52639;51.180;20.460;2022-11-20T07:29:56;-5.99;87.17
65864;SHT30;52639;51.180;20.460;2022-11-20T07:39:51;-4.42;85.62
65864;SHT30;52639;51.180;20.460;2022-11-20T07:44:35;-5.62;86.50
65864;SHT30;52639;51.180;20.460;2022-11-20T07:48:42;-5.80;88.63
65864;SHT30;52639;51.180;20.460;2022-11-20T08:07:48;-5.40;90.25
65864;SHT30;52639;51.180;20.460;2022-11-20T08:12:23;-5.25;89.63
65864;SHT30;52639;51.180;20.460;2022-11-20T08:17:28;-4.95;89.54
65864;SHT30;52639;51.180;20.460;2022-11-20T08:22:07;-4.71;89.35
65864;SHT30;52639;51.180;20.460;2022-11-20T08:31:10;-2.76;88.75
65864;SHT30;52639;51.180;20.460;2022-11-20T08:36:12;2.35;76.84
65864;SHT30;52639;51.180;20.460;2022-11-20T08:40:41;4.16;72.44
65864;SHT30;52639;51.180;20.460;2022-11-20T08:45:06;5.25;70.72
65864;SHT30;52639;51.180;20.460;2022-11-20T08:49:11;5.55;68.11
65864;SHT30;52639;51.180;20.460;2022-11-20T08:53:13;6.03;66.43
65864;SHT30;52639;51.180;20.460;2022-11-20T08:57:16;6.09;66.35
65864;SHT30;52639;51.180;20.460;2022-11-20T09:01:21;6.63;68.03
65864;SHT30;52639;51.180;20.460;2022-11-20T09:05:24;7.23;67.15
65864;SHT30;52639;51.180;20.460;2022-11-20T09:09:27;7.90;65.65
65864;SHT30;52639;51.180;20.460;2022-11-20T09:13:32;7.69;65.41
65864;SHT30;52639;51.180;20.460;2022-11-20T09:17:39;8.03;67.67
65864;SHT30;52639;51.180;20.460;2022-11-20T09:21:54;7.96;65.93
65864;SHT30;52639;51.180;20.460;2022-11-20T09:25:57;8.62;63.73
65864;SHT30;52639;51.180;20.460;2022-11-20T09:30:00;8.85;66.11
65864;SHT30;52639;51.180;20.460;2022-11-20T09:34:04;8.31;67.41
65864;SHT30;52639;51.180;20.460;2022-11-20T09:38:07;8.36;66.65
65864;SHT30;52639;51.180;20.460;2022-11-20T09:42:24;8.10;67.45
65864;SHT30;52639;51.180;20.460;2022-11-20T09:46:37;8.23;66.21
65864;SHT30;52639;51.180;20.460;2022-11-20T09:50:47;8.31;68.58
65864;SHT30;52639;51.180;20.460;2022-11-20T09:54:54;8.03;67.15
65864;SHT30;52639;51.180;20.460;2022-11-20T09:59:03;3.28;76.16
65864;SHT30;52639;51.180;20.460;2022-11-20T10:03:13;1.35;83.72
65864;SHT30;52639;51.180;20.460;2022-11-20T10:07:21;0.69;85.50
65864;SHT30;52639;51.180;20.460;2022-11-20T10:11:41;0.54;87.15
65864;SHT30;52639;51.180;20.460;2022-11-20T10:15:59;0.41;88.47
65864;SHT30;52639;51.180;20.460;2022-11-20T10:20:16;0.40;89.01
65864;SHT30;52639;51.180;20.460;2022-11-20T10:24:38;0.28;86.71
65864;SHT30;52639;51.180;20.460;2022-11-20T10:28:55;0.24;87.12
65864;SHT30;52639;51.180;20.460;2022-11-20T10:33:05;0.36;86.40
65864;SHT30;52639;51.180;20.460;2022-11-20T10:37:12;0.37;81.94
65864;SHT30;52639;51.180;20.460;2022-11-20T10:41:23;0.28;82.11
65864;SHT30;52639;51.180;20.460;2022-11-20T10:45:38;0.28;84.54
65864;SHT30;52639;51.180;20.460;2022-11-20T10:49:43;0.21;82.35
65864;SHT30;52639;51.180;20.460;2022-11-20T10:54:13;0.14;85.04
65864;SHT30;52639;51.180;20.460;2022-11-20T11:03:48;0.13;78.35
65864;SHT30;52639;51.180;20.460;2022-11-20T11:07:54;0.20;78.72
65864;SHT30;52639;51.180;20.460;2022-11-20T11:11:57;0.27;77.83
65864;SHT30;52639;51.180;20.460;2022-11-20T11:16:01;0.22;79.10
65864;SHT30;52639;51.180;20.460;2022-11-20T11:20:16;0.03;77.96
65864;SHT30;52639;51.180;20.460;2022-11-20T11:24:21;0.00;76.10
65864;SHT30;52639;51.180;20.460;2022-11-20T11:28:25;-0.02;78.72
65864;SHT30;52639;51.180;20.460;2022-11-20T11:32:29;-0.03;80.57
65864;SHT30;52639;51.180;20.460;2022-11-20T11:36:33;-0.10;82.70
65864;SHT30;52639;51.180;20.460;2022-11-20T11:40:39;0.03;81.25
65864;SHT30;52639;51.180;20.460;2022-11-20T11:44:45;-0.02;82.36
65864;SHT30;52639;51.180;20.460;2022-11-20T11:49:16;0.07;80.82
65864;SHT30;52639;51.180;20.460;2022-11-20T11:53:28;-0.02;82.02
65864;SHT30;52639;51.180;20.460;2022-11-20T11:57:41;-0.02;81.73
65864;SHT30;52639;51.180;20.460;2022-11-20T12:01:52;-0.02;78.26
65864;SHT30;52639;51.180;20.460;2022-11-20T12:06:05;-0.10;80.98
65864;SHT30;52639;51.180;20.460;2022-11-20T12:10:19;-0.09;80.50
65864;SHT30;52639;51.180;20.460;2022-11-20T12:14:30;-0.07;78.57
65864;SHT30;52639;51.180;20.460;2022-11-20T12:18:35;-0.14;79.00
65864;SHT30;52639;51.180;20.460;2022-11-20T12:22:43;-0.26;79.29
65864;SHT30;52639;51.180;20.460;2022-11-20T12:27:05;-0.33;79.65
65864;SHT30;52639;51.180;20.460;2022-11-20T12:31:37;-0.42;81.01
65864;SHT30;52639;51.180;20.460;2022-11-20T12:36:06;-0.41;81.38
65864;SHT30;52639;51.180;20.460;2022-11-20T12:40:23;-0.33;80.10
65864;SHT30;52639;51.180;20.460;2022-11-20T12:44:57;-0.37;80.74
65864;SHT30;52639;51.180;20.460;2022-11-20T12:49:16;-0.42;79.25
65864;SHT30;52639;51.180;20.460;2022-11-20T12:53:27;-0.51;77.89
65864;SHT30;52639;51.180;20.460;2022-11-20T12:57:39;-0.60;78.46
65864;SHT30;52639;51.180;20.460;2022-11-20T13:01:47;-0.74;80.93
65864;SHT30;52639;51.180;20.460;2022-11-20T13:05:59;-0.82;81.12
65864;SHT30;52639;51.180;20.460;2022-11-20T13:10:04;-0.92;81.45
65864;SHT30;52639;51.180;20.460;2022-11-20T13:14:26;-0.98;81.27
65864;SHT30;52639;51.180;20.460;2022-11-20T13:18:38;-1.05;81.77
65864;SHT30;52639;51.180;20.460;2022-11-20T13:22:45;-1.15;81.79
65864;SHT30;52639;51.180;20.460;2022-11-20T13:26:48;-1.19;82.43
65864;SHT30;52639;51.180;20.460;2022-11-20T13:30:52;-1.26;82.62
65864;SHT30;52639;51.180;20.460;2022-11-20T13:34:59;-1.38;82.79
65864;SHT30;52639;51.180;20.460;2022-11-20T13:39:02;-1.43;83.08
65864;SHT30;52639;51.180;20.460;2022-11-20T13:43:18;-1.52;83.42
65864;SHT30;52639;51.180;20.460;2022-11-20T13:47:24;-1.54;82.62
65864;SHT30;52639;51.180;20.460;2022-11-20T13:51:37;-1.80;82.97
65864;SHT30;52639;51.180;20.460;2022-11-20T13:55:48;-1.83;83.77
65864;SHT30;52639;51.180;20.460;2022-11-20T13:59:57;-1.93;83.48
65864;SHT30;52639;51.180;20.460;2022-11-20T14:04:06;-2.02;84.30
65864;SHT30;52639;51.180;20.460;2022-11-20T14:08:17;-2.04;83.75
65864;SHT30;52639;51.180;20.460;2022-11-20T14:12:29;-2.24;83.92
65864;SHT30;52639;51.180;20.460;2022-11-20T14:16:34;-2.55;84.34
65864;SHT30;52639;51.180;20.460;2022-11-20T14:20:42;-2.63;85.12
65864;SHT30;52639;51.180;20.460;2022-11-20T14:24:48;-2.70;85.52
65864;SHT30;52639;51.180;20.460;2022-11-20T14:28:54;-3.09;84.95
65864;SHT30;52639;51.180;20.460;2022-11-20T14:33:02;-3.06;86.05
65864;SHT30;52639;51.180;20.460;2022-11-20T14:37:12;-3.17;85.83
65864;SHT30;52639;51.180;20.460;2022-11-20T14:41:21;-3.37;85.99
65864;SHT30;52639;51.180;20.460;2022-11-20T14:45:26;-3.31;86.62
65864;SHT30;52639;51.180;20.460;2022-11-20T14:49:30;-3.29;86.93
65864;SHT30;52639;51.180;20.460;2022-11-20T14:53:35;-3.46;86.26
65864;SHT30;52639;51.180;20.460;2022-11-20T14:57:39;-3.62;86.50
65864;SHT30;52639;51.180;20.460;2022-11-20T15:01:55;-3.79;86.05
65864;SHT30;52639;51.180;20.460;2022-11-20T15:06:00;-4.12;85.98
65864;SHT30;52639;51.180;20.460;2022-11-20T15:10:07;-4.18;87.55
65864;SHT30;52639;51.180;20.460;2022-11-20T15:14:24;-4.06;87.45
65864;SHT30;52639;51.180;20.460;2022-11-20T15:18:32;-4.32;86.74
65864;SHT30;52639;51.180;20.460;2022-11-20T15:22:38;-4.42;87.77
65864;SHT30;52639;51.180;20.460;2022-11-20T15:26:41;-4.63;87.67
65864;SHT30;52639;51.180;20.460;2022-11-20T15:30:47;-4.84;88.12
65864;SHT30;52639;51.180;20.460;2022-11-20T15:34:51;-4.93;88.36
65864;SHT30;52639;51.180;20.460;2022-11-20T15:38:53;-4.94;87.70
65864;SHT30;52639;51.180;20.460;2022-11-20T15:42:56;-5.07;88.40
65864;SHT30;52639;51.180;20.460;2022-11-20T15:47:32;-4.88;89.07
65864;SHT30;52639;51.180;20.460;2022-11-20T15:51:37;-5.05;88.49
65864;SHT30;52639;51.180;20.460;2022-11-20T15:55:41;-5.01;89.25
65864;SHT30;52639;51.180;20.460;2022-11-20T15:59:45;-4.94;89.84
65864;SHT30;52639;51.180;20.460;2022-11-20T16:03:49;-4.81;88.90
65864;SHT30;52639;51.180;20.460;2022-11-20T16:07:53;-4.79;88.63
65864;SHT30;52639;51.180;20.460;2022-11-20T16:11:56;-4.57;89.57
65864;SHT30;52639;51.180;20.460;2022-11-20T16:16:02;-4.50;89.02
65864;SHT30;52639;51.180;20.460;2022-11-20T16:20:11;-4.37;90.31
65864;SHT30;52639;51.180;20.460;2022-11-20T16:24:15;-4.33;90.08
65864;SHT30;52639;51.180;20.460;2022-11-20T16:28:18;-4.34;88.67
65864;SHT30;52639;51.180;20.460;2022-11-20T16:32:23;-4.36;89.05
65864;SHT30;52639;51.180;20.460;2022-11-20T16:36:28;-4.34;88.96
65864;SHT30;52639;51.180;20.460;2022-11-20T16:40:32;-4.46;88.30
65864;SHT30;52639;51.180;20.460;2022-11-20T16:44:35;-4.48;88.86
65864;SHT30;52639;51.180;20.460;2022-11-20T16:48:39;-4.79;88.38
65864;SHT30;52639;51.180;20.460;2022-11-20T16:52:43;-5.14;88.50
65864;SHT30;52639;51.180;20.460;2022-11-20T16:56:46;-5.40;89.00
65864;SHT30;52639;51.180;20.460;2022-11-20T17:00:51;-5.58;89.19
65864;SHT30;52639;51.180;20.460;2022-11-20T17:04:54;-5.70;89.65
65864;SHT30;52639;51.180;20.460;2022-11-20T17:09:00;-5.96;89.56
65864;SHT30;52639;51.180;20.460;2022-11-20T17:13:03;-6.14;90.07
65864;SHT30;52639;51.180;20.460;2022-11-20T17:17:06;-6.14;90.74
65864;SHT30;52639;51.180;20.460;2022-11-20T17:21:09;-5.96;91.05
65864;SHT30;52639;51.180;20.460;2022-11-20T17:25:15;-5.72;90.67
65864;SHT30;52639;51.180;20.460;2022-11-20T17:29:18;-5.55;90.83
65864;SHT30;52639;51.180;20.460;2022-11-20T17:33:24;-5.12;90.91
65864;SHT30;52639;51.180;20.460;2022-11-20T17:37:27;-4.88;89.89
65864;SHT30;52639;51.180;20.460;2022-11-20T17:41:32;-4.57;90.05
65864;SHT30;52639;51.180;20.460;2022-11-20T17:45:35;-4.36;89.81
65864;SHT30;52639;51.180;20.460;2022-11-20T17:49:38;-4.26;89.92
65864;SHT30;52639;51.180;20.460;2022-11-20T17:53:43;-4.09;89.38
65864;SHT30;52639;51.180;20.460;2022-11-20T17:57:49;-3.88;89.72
65864;SHT30;52639;51.180;20.460;2022-11-20T18:01:56;-3.95;88.40
65864;SHT30;52639;51.180;20.460;2022-11-20T18:06:07;-4.26;88.65
65864;SHT30;52639;51.180;20.460;2022-11-20T18:10:10;-4.48;88.91
65864;SHT30;52639;51.180;20.460;2022-11-20T18:14:16;-4.76;88.57
65864;SHT30;52639;51.180;20.460;2022-11-20T18:18:31;-5.01;89.04
65864;SHT30;52639;51.180;20.460;2022-11-20T18:22:35;-5.32;89.43
65864;SHT30;52639;51.180;20.460;2022-11-20T18:26:38;-5.28;89.83
65864;SHT30;52639;51.180;20.460;2022-11-20T18:30:44;-4.98;90.84
65864;SHT30;52639;51.180;20.460;2022-11-20T18:34:47;-4.93;89.83
65864;SHT30;52639;51.180;20.460;2022-11-20T18:38:52;-4.93;91.06
65864;SHT30;52639;51.180;20.460;2022-11-20T18:42:55;-4.98;90.77
65864;SHT30;52639;51.180;20.460;2022-11-20T18:47:34;-5.21;90.87
65864;SHT30;52639;51.180;20.460;2022-11-20T18:51:40;-5.19;91.64
65864;SHT30;52639;51.180;20.460;2022-11-20T18:55:45;-4.91;92.55
65864;SHT30;52639;51.180;20.460;2022-11-20T18:59:48;-4.94;91.27
65864;SHT30;52639;51.180;20.460;2022-11-20T19:03:52;-4.83;91.37
65864;SHT30;52639;51.180;20.460;2022-11-20T19:07:56;-4.73;92.07
65864;SHT30;52639;51.180;20.460;2022-11-20T19:12:00;-4.52;91.64
65864;SHT30;52639;51.180;20.460;2022-11-20T19:16:08;-4.32;91.38
65864;SHT30;52639;51.180;20.460;2022-11-20T19:20:15;-4.15;90.93
65864;SHT30;52639;51.180;20.460;2022-11-20T19:24:19;-3.88;90.40
65864;SHT30;52639;51.180;20.460;2022-11-20T19:28:22;-3.64;90.82
65864;SHT30;52639;51.180;20.460;2022-11-20T19:32:26;-3.43;92.51
65864;SHT30;52639;51.180;20.460;2022-11-20T19:36:33;-3.26;91.93
65864;SHT30;52639;51.180;20.460;2022-11-20T19:40:39;-3.09;91.90
65864;SHT30;52639;51.180;20.460;2022-11-20T19:44:42;-2.95;91.49
65864;SHT30;52639;51.180;20.460;2022-11-20T19:48:48;-2.85;91.53
65864;SHT30;52639;51.180;20.460;2022-11-20T19:52:52;-2.77;91.08
65864;SHT30;52639;51.180;20.460;2022-11-20T19:56:55;-2.72;90.04
65864;SHT30;52639;51.180;20.460;2022-11-20T20:01:05;-2.65;90.93
65864;SHT30;52639;51.180;20.460;2022-11-20T20:05:09;-2.63;90.64
65864;SHT30;52639;51.180;20.460;2022-11-20T20:09:15;-2.55;90.55
65864;SHT30;52639;51.180;20.460;2022-11-20T20:13:19;-2.51;90.36
65864;SHT30;52639;51.180;20.460;2022-11-20T20:17:22;-2.41;90.11
65864;SHT30;52639;51.180;20.460;2022-11-20T20:21:25;-2.31;92.12
65864;SHT30;52639;51.180;20.460;2022-11-20T20:25:30;-2.31;91.58
65864;SHT30;52639;51.180;20.460;2022-11-20T20:29:33;-2.32;90.70
65864;SHT30;52639;51.180;20.460;2022-11-20T20:33:38;-2.34;90.42
65864;SHT30;52639;51.180;20.460;2022-11-20T20:37:41;-2.38;89.95
65864;SHT30;52639;51.180;20.460;2022-11-20T20:41:45;-2.56;89.64
65864;SHT30;52639;51.180;20.460;2022-11-20T20:45:49;-2.59;89.86
65864;SHT30;52639;51.180;20.460;2022-11-20T20:49:53;-2.89;89.28
65864;SHT30;52639;51.180;20.460;2022-11-20T20:53:57;-2.89;91.27
65864;SHT30;52639;51.180;20.460;2022-11-20T20:58:01;-2.93;90.44
65864;SHT30;52639;51.180;20.460;2022-11-20T21:02:06;-2.89;90.90
65864;SHT30;52639;51.180;20.460;2022-11-20T21:06:09;-3.04;90.10
65864;SHT30;52639;51.180;20.460;2022-11-20T21:10:13;-3.16;90.52
65864;SHT30;52639;51.180;20.460;2022-11-20T21:14:18;-3.09;90.62
65864;SHT30;52639;51.180;20.460;2022-11-20T21:18:22;-2.90;90.43
65864;SHT30;52639;51.180;20.460;2022-11-20T21:22:25;-2.99;90.58
65864;SHT30;52639;51.180;20.460;2022-11-20T21:26:30;-3.04;91.91
65864;SHT30;52639;51.180;20.460;2022-11-20T21:30:34;-3.21;91.63
65864;SHT30;52639;51.180;20.460;2022-11-20T21:34:36;-3.29;91.55
65864;SHT30;52639;51.180;20.460;2022-11-20T21:38:39;-3.39;92.38
65864;SHT30;52639;51.180;20.460;2022-11-20T21:42:42;-3.70;91.50
65864;SHT30;52639;51.180;20.460;2022-11-20T21:46:46;-3.88;91.93
65864;SHT30;52639;51.180;20.460;2022-11-20T21:50:48;-3.88;91.93
65864;SHT30;52639;51.180;20.460;2022-11-20T21:54:51;-4.06;91.00
65864;SHT30;52639;51.180;20.460;2022-11-20T21:58:54;-4.32;91.10
65864;SHT30;52639;51.180;20.460;2022-11-20T22:02:58;-4.50;91.85
65864;SHT30;52639;51.180;20.460;2022-11-20T22:07:01;-4.45;92.04
65864;SHT30;52639;51.180;20.460;2022-11-20T22:11:05;-4.69;91.72
65864;SHT30;52639;51.180;20.460;2022-11-20T22:15:08;-4.93;90.90
65864;SHT30;52639;51.180;20.460;2022-11-20T22:19:14;-4.88;92.56
65864;SHT30;52639;51.180;20.460;2022-11-20T22:23:18;-4.81;92.44
65864;SHT30;52639;51.180;20.460;2022-11-20T22:27:20;-4.70;92.68
65864;SHT30;52639;51.180;20.460;2022-11-20T22:31:24;-4.20;92.78
65864;SHT30;52639;51.180;20.460;2022-11-20T22:35:29;-3.74;92.40
65864;SHT30;52639;51.180;20.460;2022-11-20T22:39:31;-3.44;91.12
65864;SHT30;52639;51.180;20.460;2022-11-20T22:43:34;-3.16;90.70
65864;SHT30;52639;51.180;20.460;2022-11-20T22:47:37;-2.89;90.87
65864;SHT30;52639;51.180;20.460;2022-11-20T22:51:41;-2.77;90.71
65864;SHT30;52639;51.180;20.460;2022-11-20T22:55:48;-2.63;90.34
65864;SHT30;52639;51.180;20.460;2022-11-20T22:59:50;-2.53;90.81
65864;SHT30;52639;51.180;20.460;2022-11-20T23:03:55;-2.40;90.55
65864;SHT30;52639;51.180;20.460;2022-11-20T23:07:59;-2.37;90.40
65864;SHT30;52639;51.180;20.460;2022-11-20T23:12:01;-2.30;90.40
65864;SHT30;52639;51.180;20.460;2022-11-20T23:16:05;-2.21;90.34
65864;SHT30;52639;51.180;20.460;2022-11-20T23:20:09;-2.18;90.13
65864;SHT30;52639;51.180;20.460;2022-11-20T23:24:14;-2.14;90.42
65864;SHT30;52639;51.180;20.460;2022-11-20T23:28:16;-2.11;90.37
65864;SHT30;52639;51.180;20.460;2022-11-20T23:32:18;-2.08;90.42
65864;SHT30;52639;51.180;20.460;2022-11-20T23:36:21;-2.01;91.52
65864;SHT30;52639;51.180;20.460;2022-11-20T23:40:25;-2.05;91.04
65864;SHT30;52639;51.180;20.460;2022-11-20T23:44:27;-2.02;90.81
65864;SHT30;52639;51.180;20.460;2022-11-20T23:48:31;-2.02;90.58
65864;SHT30;52639;51.180;20.460;2022-11-20T23:52:34;-2.00;91.52
65864;SHT30;52639;51.180;20.460;2022-11-20T23:56:38;-2.00;91.23
